ナンディ の空港の天気 - METARとTAF

ナンディ国際空港 ( NFFN / NAN ) - フィジー ナンディ (ビティレブ島)
飛行場実況気象(Metar)
観測時間01/23 16:00 FJT (01/23 04:00 UTC)
風向・風速西 6m/s
視程10km以上
天気現象
全天の4割程度の雲 雲底高度 790m
全天の4割程度の雲 雲底高度 9140m
気温31℃
湿度62%
気圧1005hPa
METARNFFN 230400Z 27012KT 9999 SCT026TCU SCT300 31/23 Q1005 NOSIG
過去の天気等 Google飛行場航空写真 Wunderground天気予報

過去48時間のMETAR

飛行場予報(TAF)
発表時間: 1/23 11:15 FJT (1/22 23:15 UTC)
予報対象時間: 23日12時 FJT ~ 24日12時 FJT
風向・風速東 6m/s
視程10km以上
全天の4割程度の雲 雲底高度 910m
23日14時 FJT ~ 23日16時 FJT に徐々に
風向・風速西北西 5m/s
23日15時 FJT ~ 23日18時 FJT に 確率 30% で一時的に
視程3,000m
天気現象雷雨
全天の8割程度の雲 雲底高度 460m
少しの積乱雲 雲底高度 550m
23日16時 FJT ~ 23日18時 FJT に徐々に
風向・風速東 3m/s
TAF NFFN 222315Z 2300/2324 09012KT 9999 SCT030
BECMG 2302/2304 29010KT
PROB30 TEMPO 2303/2306 3000 TSRA BKN015 FEW018CB
BECMG 2304/2306 10005KT